Al Taqaddum, Iraq

6:44 AM AST on August 01, 2014 (GMT +0300)
BAGHDAD INTL (ORBI) Elev 115 ft | 33.26 °N, 44.23 °E | Change Station

Current weather conditions updated 14 minutes ago

Clear
Clear
90 °F
Feels Like 88 °F
N
12
Wind Variable Wind from WNW

Today is forecast to be nearly the same temperature as yesterday.

Today
High -- | Low -- °F
--% Chance of Precip.
Yesterday
High -- | Low -- °F
Precip. -- in
5:18 AM 7:05 PM
Waxing Crescent, 23% visible
Pressure 29.47 in
Visibility -9999.0 miles
Clouds
Heat Index 88 °F
Dew Point 57 °F
Humidity 33%
Rainfall 0.00 in
Snow Depth Not available.
UV Not available.
Pollen Not available.
Air Quality Not available.
Flu Activity Not available.
METAR ORBI 010330Z 30010KT CAVOK 32/14 Q0998

More Conditions Fewer Conditions

Pressure 29.47 in
Visibility -9999.0 miles
Clouds
Heat Index 88 °F
Dew Point 57 °F
Humidity 33%
Rainfall 0.00 in
Snow Depth Not available.
UV Not available.
Pollen Not available.
Air Quality Not available.
Flu Activity Not available.
METAR ORBI 010330Z 30010KT CAVOK 32/14 Q0998

More Conditions Fewer Conditions

10-Day Weather Forecast

Almanac

Astronomy

Aug. 01, 2014 Rise Set
Actual Time 5:18 AM AST 7:05 PM AST
Civil Twilight 4:50 AM AST 7:32 PM AST
Nautical Twilight 4:18 AM AST 8:05 PM AST
Astronomical Twilight 3:43 AM AST 8:39 PM AST
Moon 10:03 AM AST 9:56 PM AST
Length of Visible Light 14h 41m
Length of Day
13h 47m
Tomorrow will be 1m 32s shorter.
Waxing Crescent, 23% of the Moon is Illuminated
Jul 31
Waxing Crescent
Aug 3
First Quarter
Aug 10
Full
Aug 17
Last Quarter
Aug 25
New

Yesterday's Extremes

Country Highs Country Lows

Community

WunderPhotos

Upload Photos

1,739,504 photos uploaded!

Nearby

Snow Depth

Not available.

Earthquake Activity

City Distance Mag. Time & Date
No recent earthquake activity has been reported nearby.
Minimum magnitude displayed is 2.5.

Coastal Water Temperatures

Place Temperature
No Stations Reporting

Nearby Weather Stations

There are no personal weather stations in this area.